Accueil
METAR-TAF:

METAR-TAF

Aéroports :

Blue Ridge Airport

Martinsville, Virginie, États-Unis

latitude: 36-38N, longitude: 080-01W, altitude: 287 m

Observation

Le bulletin a été fait il y a 48 minutes, à 20:35 UTC
Vent 4 kt de sud avec des rafales jusqu'à 33 kt
Température 22°C
Humidité 94%
Pression 1018 hPa
Visibilité: 0.4 km
Ciel couvert à une hauteur de 700 ft
orage, forte pluie

METAR: KMTV 122035Z AUTO 18004G33KT 1/4SM +TSRA OVC007 22/21 A3006 RMK AO2 LTG DSNT ALQS P0247 T02240212

Heure: 17:23 (21:23 UTC)


TAF: absent

Observations et prévisions météorologiques de plus de 4000 aéroports (messages METAR et TAF).

Les stations disponibles sont représentées par des disques jaunes et rouges sur la carte.

Passer la souris dessus pour voir le nom de la station.

Cliquer dessus pour voir les observations et prévisions météorologiques.

Pour changer de carte: cliquez sur les boutons verts avec une croix noire pour zoomer, sur le bouton vert avec un tiret pour effectuer un zoom arrière, ou sur les flèches vertes pour les cartes adjacentes.


METAR-TAF: